17/05/05 - 09h:51mDenunciar

General Dynamics F-16A Fighting Falcon

É interessante notar como as luzes ficam alojadas na portinhola do trem de pouso. Ainda sobre esse vale à pena ressaltar que, nos F-16, o trem de pouso desce pela ação da gravidade, havendo atuação mecânica apenas durante o seu recolhimento.



Imagem de Ramon Berk, retirada do site Jetphotos.net.





METAR SBPB 171200Z 20004KT 9999 FEW015 BKN300 32/27 Q1010=

Comentários (0)

Fotos postadas a mais de 15 dias não podem receber comentários.